Portada
METAR-TAF:

METAR-TAF

Aeroports :

Vítsiebsk, Bielorússia

latitud: 55-10N, longitud: 030-13E, altitud: 176 m

Observació

L'informe es va fer fa 7 hores i 32 minuts, a les 16:00 UTC
Vent 12 kt del Sud/Sud-Est amb ràfegues de 17 kt
Temperatura 1°C
Humitat 100%
Pressió 1014 hPa
Visibilitat: 4300 m
Cel cobert a una alçada de 400 ft
plugim, boirina

METAR: UMII 121600Z 16006G09MPS 4300 -DZ BR OVC004 01/01 Q1014 R23/710250 TEMPO 2100 BKN003 RMK QBB140

Hora: 02:32 (23:32 UTC)

Pronòstic

L'informe es va fer fa 9 hores i 25 minuts, a les 14:07 UTC
Pronòstic vàlid del 12 a les 15 UTC al 12 a les 24 UTC
Vent 14 kt del Sud amb ràfegues de 23 kt
Visibilitat: 3000 m
Cel ennuvolat a una alçada de 400 ft
boirina
Temporalment
l' 12 a les 15 UTC al 12 a les 24 UTC
Visibilitat: 0400 m
a una alçada de 200 ft
plugim gebradora, boira gebradora

TAF: UMII 121407Z 1215/1224 17007G12MPS 3000 BR BKN004 TEMPO 1215/1224 0400 FZDZ FZFG VV002

Observacions i pronòstics meteorològics de més de 4000 aeroports (METAR i TAF).

Les estacions disponibles són els punts grocs i vermells al mapa.

Posi el ratolí al punt desitjat per veure el nom de l'estació.

Feu clic per veure les observacions i els pronòstics meteorològics.

Per canviar el mapa: feu clic els botons verds amb una creu de color negre per apropar; al botó verd amb un guió per allunyar la imatge; o en les fletxes verdes per a mapes adjacents.


METAR-TAF: